sensor_id;sensor_type;location;lat;lon;timestamp;P1;durP1;ratioP1;P2;durP2;ratioP2
5730;SDS011;2890;51.950;7.668;2022-08-01T00:01:52;13.20;;;8.90;;
5730;SDS011;2890;51.950;7.668;2022-08-01T00:04:19;15.45;;;8.65;;
5730;SDS011;2890;51.950;7.668;2022-08-01T00:06:46;14.77;;;8.80;;
5730;SDS011;2890;51.950;7.668;2022-08-01T00:09:13;15.07;;;9.00;;
5730;SDS011;2890;51.950;7.668;2022-08-01T00:11:40;12.43;;;9.05;;
5730;SDS011;2890;51.950;7.668;2022-08-01T00:14:07;15.30;;;8.93;;
5730;SDS011;2890;51.950;7.668;2022-08-01T00:16:35;14.18;;;8.57;;
5730;SDS011;2890;51.950;7.668;2022-08-01T00:19:04;14.93;;;9.40;;
5730;SDS011;2890;51.950;7.668;2022-08-01T00:21:31;18.08;;;9.82;;
5730;SDS011;2890;51.950;7.668;2022-08-01T00:23:58;14.15;;;9.45;;
5730;SDS011;2890;51.950;7.668;2022-08-01T00:26:25;13.00;;;8.70;;
5730;SDS011;2890;51.950;7.668;2022-08-01T00:28:52;17.15;;;10.07;;
5730;SDS011;2890;51.950;7.668;2022-08-01T00:31:19;15.57;;;9.70;;
5730;SDS011;2890;51.950;7.668;2022-08-01T00:33:46;15.90;;;9.13;;
5730;SDS011;2890;51.950;7.668;2022-08-01T00:36:14;17.20;;;9.82;;
5730;SDS011;2890;51.950;7.668;2022-08-01T00:38:41;15.55;;;9.60;;
5730;SDS011;2890;51.950;7.668;2022-08-01T00:41:09;15.05;;;10.27;;
5730;SDS011;2890;51.950;7.668;2022-08-01T00:43:36;14.98;;;9.65;;
5730;SDS011;2890;51.950;7.668;2022-08-01T00:46:03;17.50;;;10.48;;
5730;SDS011;2890;51.950;7.668;2022-08-01T00:48:30;20.17;;;10.57;;
5730;SDS011;2890;51.950;7.668;2022-08-01T00:50:57;14.27;;;9.27;;
5730;SDS011;2890;51.950;7.668;2022-08-01T00:53:25;15.65;;;9.68;;
5730;SDS011;2890;51.950;7.668;2022-08-01T00:55:52;17.08;;;10.13;;
5730;SDS011;2890;51.950;7.668;2022-08-01T00:58:19;15.73;;;10.25;;
5730;SDS011;2890;51.950;7.668;2022-08-01T01:00:47;17.15;;;10.00;;
5730;SDS011;2890;51.950;7.668;2022-08-01T01:03:14;18.92;;;10.60;;
5730;SDS011;2890;51.950;7.668;2022-08-01T01:05:44;15.77;;;10.32;;
5730;SDS011;2890;51.950;7.668;2022-08-01T01:08:13;16.13;;;9.63;;
5730;SDS011;2890;51.950;7.668;2022-08-01T01:10:46;16.33;;;10.82;;
5730;SDS011;2890;51.950;7.668;2022-08-01T01:13:16;17.05;;;9.93;;
5730;SDS011;2890;51.950;7.668;2022-08-01T01:15:46;14.32;;;9.48;;
5730;SDS011;2890;51.950;7.668;2022-08-01T01:18:14;17.45;;;9.73;;
5730;SDS011;2890;51.950;7.668;2022-08-01T01:20:44;14.20;;;10.70;;
5730;SDS011;2890;51.950;7.668;2022-08-01T01:23:19;16.73;;;10.13;;
5730;SDS011;2890;51.950;7.668;2022-08-01T01:25:54;17.33;;;10.18;;
5730;SDS011;2890;51.950;7.668;2022-08-01T01:28:26;14.93;;;9.55;;
5730;SDS011;2890;51.950;7.668;2022-08-01T01:30:56;15.90;;;9.82;;
5730;SDS011;2890;51.950;7.668;2022-08-01T01:33:25;14.77;;;9.75;;
5730;SDS011;2890;51.950;7.668;2022-08-01T01:35:55;16.67;;;9.13;;
5730;SDS011;2890;51.950;7.668;2022-08-01T01:38:26;14.77;;;9.75;;
5730;SDS011;2890;51.950;7.668;2022-08-01T01:40:54;15.93;;;9.50;;
5730;SDS011;2890;51.950;7.668;2022-08-01T01:43:22;14.52;;;9.07;;
5730;SDS011;2890;51.950;7.668;2022-08-01T01:45:50;15.57;;;10.05;;
5730;SDS011;2890;51.950;7.668;2022-08-01T01:48:19;16.50;;;9.98;;
5730;SDS011;2890;51.950;7.668;2022-08-01T01:50:48;16.73;;;10.05;;
5730;SDS011;2890;51.950;7.668;2022-08-01T01:53:17;17.02;;;9.73;;
5730;SDS011;2890;51.950;7.668;2022-08-01T01:55:46;15.77;;;10.07;;
5730;SDS011;2890;51.950;7.668;2022-08-01T01:58:14;14.88;;;9.85;;
5730;SDS011;2890;51.950;7.668;2022-08-01T02:00:42;15.40;;;9.80;;
5730;SDS011;2890;51.950;7.668;2022-08-01T02:03:10;13.65;;;9.27;;
5730;SDS011;2890;51.950;7.668;2022-08-01T02:05:39;16.10;;;10.10;;
5730;SDS011;2890;51.950;7.668;2022-08-01T02:08:07;16.58;;;10.55;;
5730;SDS011;2890;51.950;7.668;2022-08-01T02:10:34;15.68;;;9.35;;
5730;SDS011;2890;51.950;7.668;2022-08-01T02:13:03;15.60;;;9.05;;
5730;SDS011;2890;51.950;7.668;2022-08-01T02:15:33;17.23;;;10.25;;
5730;SDS011;2890;51.950;7.668;2022-08-01T02:18:03;17.42;;;10.35;;
5730;SDS011;2890;51.950;7.668;2022-08-01T02:20:32;15.32;;;9.40;;
5730;SDS011;2890;51.950;7.668;2022-08-01T02:23:04;13.35;;;8.95;;
5730;SDS011;2890;51.950;7.668;2022-08-01T02:25:34;17.00;;;10.27;;
5730;SDS011;2890;51.950;7.668;2022-08-01T02:28:04;12.32;;;9.63;;
5730;SDS011;2890;51.950;7.668;2022-08-01T02:30:33;12.85;;;8.45;;
5730;SDS011;2890;51.950;7.668;2022-08-01T02:33:02;15.10;;;9.85;;
5730;SDS011;2890;51.950;7.668;2022-08-01T02:35:30;15.27;;;9.20;;
5730;SDS011;2890;51.950;7.668;2022-08-01T02:37:59;17.95;;;10.20;;
5730;SDS011;2890;51.950;7.668;2022-08-01T02:40:29;13.82;;;9.52;;
5730;SDS011;2890;51.950;7.668;2022-08-01T02:42:59;12.48;;;9.30;;
5730;SDS011;2890;51.950;7.668;2022-08-01T02:45:26;13.52;;;9.05;;
5730;SDS011;2890;51.950;7.668;2022-08-01T02:47:55;16.42;;;9.88;;
5730;SDS011;2890;51.950;7.668;2022-08-01T02:50:24;13.18;;;8.93;;
5730;SDS011;2890;51.950;7.668;2022-08-01T02:52:52;13.02;;;9.38;;
5730;SDS011;2890;51.950;7.668;2022-08-01T02:55:21;13.57;;;9.73;;
5730;SDS011;2890;51.950;7.668;2022-08-01T02:57:50;12.48;;;8.68;;
5730;SDS011;2890;51.950;7.668;2022-08-01T03:00:18;13.60;;;8.50;;
5730;SDS011;2890;51.950;7.668;2022-08-01T03:02:45;15.02;;;8.65;;
5730;SDS011;2890;51.950;7.668;2022-08-01T03:05:15;14.82;;;9.15;;
5730;SDS011;2890;51.950;7.668;2022-08-01T03:07:44;12.63;;;8.70;;
5730;SDS011;2890;51.950;7.668;2022-08-01T03:10:11;12.80;;;8.68;;
5730;SDS011;2890;51.950;7.668;2022-08-01T03:12:40;16.23;;;8.85;;
5730;SDS011;2890;51.950;7.668;2022-08-01T03:15:10;12.45;;;8.75;;
5730;SDS011;2890;51.950;7.668;2022-08-01T03:17:37;12.27;;;8.48;;
5730;SDS011;2890;51.950;7.668;2022-08-01T03:20:06;14.05;;;7.78;;
5730;SDS011;2890;51.950;7.668;2022-08-01T03:22:33;11.10;;;7.88;;
5730;SDS011;2890;51.950;7.668;2022-08-01T03:25:00;12.23;;;8.00;;
5730;SDS011;2890;51.950;7.668;2022-08-01T03:27:28;13.20;;;8.18;;
5730;SDS011;2890;51.950;7.668;2022-08-01T03:29:56;12.57;;;6.85;;
5730;SDS011;2890;51.950;7.668;2022-08-01T03:32:26;11.43;;;6.78;;
5730;SDS011;2890;51.950;7.668;2022-08-01T03:34:54;10.68;;;6.88;;
5730;SDS011;2890;51.950;7.668;2022-08-01T03:37:21;8.18;;;6.30;;
5730;SDS011;2890;51.950;7.668;2022-08-01T03:39:52;7.78;;;6.22;;
5730;SDS011;2890;51.950;7.668;2022-08-01T03:42:23;10.27;;;6.88;;
5730;SDS011;2890;51.950;7.668;2022-08-01T03:44:52;10.15;;;6.22;;
5730;SDS011;2890;51.950;7.668;2022-08-01T03:47:21;8.32;;;5.97;;
5730;SDS011;2890;51.950;7.668;2022-08-01T03:49:50;11.00;;;6.82;;
5730;SDS011;2890;51.950;7.668;2022-08-01T03:52:18;10.80;;;6.25;;
5730;SDS011;2890;51.950;7.668;2022-08-01T03:54:48;10.18;;;6.80;;
5730;SDS011;2890;51.950;7.668;2022-08-01T03:57:16;9.75;;;6.43;;
5730;SDS011;2890;51.950;7.668;2022-08-01T03:59:44;7.88;;;6.05;;
5730;SDS011;2890;51.950;7.668;2022-08-01T04:02:11;10.35;;;6.63;;
5730;SDS011;2890;51.950;7.668;2022-08-01T04:04:39;8.55;;;5.78;;
5730;SDS011;2890;51.950;7.668;2022-08-01T04:07:21;8.75;;;5.82;;
5730;SDS011;2890;51.950;7.668;2022-08-01T04:09:49;9.52;;;6.15;;
5730;SDS011;2890;51.950;7.668;2022-08-01T04:12:16;7.65;;;5.72;;
5730;SDS011;2890;51.950;7.668;2022-08-01T04:14:43;7.25;;;5.15;;
5730;SDS011;2890;51.950;7.668;2022-08-01T04:17:10;9.65;;;6.13;;
5730;SDS011;2890;51.950;7.668;2022-08-01T04:19:37;8.50;;;6.13;;
5730;SDS011;2890;51.950;7.668;2022-08-01T04:22:04;8.10;;;5.78;;
5730;SDS011;2890;51.950;7.668;2022-08-01T04:24:33;5.22;;;4.68;;
5730;SDS011;2890;51.950;7.668;2022-08-01T04:27:01;9.40;;;5.20;;
5730;SDS011;2890;51.950;7.668;2022-08-01T04:29:29;8.30;;;4.88;;
5730;SDS011;2890;51.950;7.668;2022-08-01T04:31:58;6.38;;;4.53;;
5730;SDS011;2890;51.950;7.668;2022-08-01T04:34:25;7.57;;;4.57;;
5730;SDS011;2890;51.950;7.668;2022-08-01T04:36:54;6.80;;;4.53;;
5730;SDS011;2890;51.950;7.668;2022-08-01T04:39:22;6.50;;;4.32;;
5730;SDS011;2890;51.950;7.668;2022-08-01T04:41:53;5.55;;;4.60;;
5730;SDS011;2890;51.950;7.668;2022-08-01T04:44:21;5.38;;;4.50;;
5730;SDS011;2890;51.950;7.668;2022-08-01T04:46:48;7.53;;;5.07;;
5730;SDS011;2890;51.950;7.668;2022-08-01T04:49:16;6.10;;;4.03;;
5730;SDS011;2890;51.950;7.668;2022-08-01T04:51:49;4.57;;;3.83;;
5730;SDS011;2890;51.950;7.668;2022-08-01T04:54:17;6.57;;;4.10;;
5730;SDS011;2890;51.950;7.668;2022-08-01T04:56:46;7.88;;;4.30;;
5730;SDS011;2890;51.950;7.668;2022-08-01T04:59:14;7.07;;;4.22;;
5730;SDS011;2890;51.950;7.668;2022-08-01T05:01:59;6.18;;;4.70;;
5730;SDS011;2890;51.950;7.668;2022-08-01T05:04:26;5.85;;;4.50;;
5730;SDS011;2890;51.950;7.668;2022-08-01T05:06:53;6.78;;;4.50;;
5730;SDS011;2890;51.950;7.668;2022-08-01T05:09:20;5.68;;;4.85;;
5730;SDS011;2890;51.950;7.668;2022-08-01T05:11:47;5.15;;;4.03;;
5730;SDS011;2890;51.950;7.668;2022-08-01T05:14:16;6.38;;;4.70;;
5730;SDS011;2890;51.950;7.668;2022-08-01T05:16:44;5.85;;;5.15;;
5730;SDS011;2890;51.950;7.668;2022-08-01T05:19:11;8.88;;;4.75;;
5730;SDS011;2890;51.950;7.668;2022-08-01T05:21:38;6.68;;;4.75;;
5730;SDS011;2890;51.950;7.668;2022-08-01T05:24:05;5.88;;;4.60;;
5730;SDS011;2890;51.950;7.668;2022-08-01T05:26:32;7.85;;;4.97;;
5730;SDS011;2890;51.950;7.668;2022-08-01T05:29:00;7.22;;;4.40;;
5730;SDS011;2890;51.950;7.668;2022-08-01T05:31:28;7.10;;;4.97;;
5730;SDS011;2890;51.950;7.668;2022-08-01T05:33:58;8.10;;;5.63;;
5730;SDS011;2890;51.950;7.668;2022-08-01T05:36:26;8.15;;;5.18;;
5730;SDS011;2890;51.950;7.668;2022-08-01T05:38:53;8.18;;;5.25;;
5730;SDS011;2890;51.950;7.668;2022-08-01T05:41:20;6.38;;;5.38;;
5730;SDS011;2890;51.950;7.668;2022-08-01T05:43:47;8.18;;;5.15;;
5730;SDS011;2890;51.950;7.668;2022-08-01T05:46:14;5.85;;;4.68;;
5730;SDS011;2890;51.950;7.668;2022-08-01T05:48:42;6.60;;;5.40;;
5730;SDS011;2890;51.950;7.668;2022-08-01T05:51:09;6.72;;;4.95;;
5730;SDS011;2890;51.950;7.668;2022-08-01T05:53:37;6.43;;;5.15;;
5730;SDS011;2890;51.950;7.668;2022-08-01T05:56:04;7.07;;;5.53;;
5730;SDS011;2890;51.950;7.668;2022-08-01T05:58:31;6.97;;;5.57;;
5730;SDS011;2890;51.950;7.668;2022-08-01T06:00:58;9.32;;;5.45;;
5730;SDS011;2890;51.950;7.668;2022-08-01T06:03:25;8.95;;;5.95;;
5730;SDS011;2890;51.950;7.668;2022-08-01T06:05:57;6.00;;;5.10;;
5730;SDS011;2890;51.950;7.668;2022-08-01T06:08:24;7.38;;;5.45;;
5730;SDS011;2890;51.950;7.668;2022-08-01T06:10:51;5.82;;;5.10;;
5730;SDS011;2890;51.950;7.668;2022-08-01T06:13:21;7.32;;;5.20;;
5730;SDS011;2890;51.950;7.668;2022-08-01T06:15:48;8.35;;;5.15;;
5730;SDS011;2890;51.950;7.668;2022-08-01T06:18:15;6.45;;;5.10;;
5730;SDS011;2890;51.950;7.668;2022-08-01T06:20:43;6.45;;;5.60;;
5730;SDS011;2890;51.950;7.668;2022-08-01T06:23:11;5.90;;;4.90;;
5730;SDS011;2890;51.950;7.668;2022-08-01T06:25:38;5.18;;;4.47;;
5730;SDS011;2890;51.950;7.668;2022-08-01T06:28:05;5.80;;;4.45;;
5730;SDS011;2890;51.950;7.668;2022-08-01T06:30:31;7.15;;;4.22;;
5730;SDS011;2890;51.950;7.668;2022-08-01T06:32:58;6.53;;;4.50;;
5730;SDS011;2890;51.950;7.668;2022-08-01T06:35:26;17.33;;;5.28;;
5730;SDS011;2890;51.950;7.668;2022-08-01T06:37:54;13.05;;;4.22;;
5730;SDS011;2890;51.950;7.668;2022-08-01T06:40:22;32.85;;;5.78;;
5730;SDS011;2890;51.950;7.668;2022-08-01T06:42:49;6.50;;;5.75;;
5730;SDS011;2890;51.950;7.668;2022-08-01T06:45:16;11.57;;;7.57;;
5730;SDS011;2890;51.950;7.668;2022-08-01T06:47:43;8.70;;;7.22;;
5730;SDS011;2890;51.950;7.668;2022-08-01T06:50:11;6.38;;;5.30;;
5730;SDS011;2890;51.950;7.668;2022-08-01T06:52:39;9.05;;;5.82;;
5730;SDS011;2890;51.950;7.668;2022-08-01T06:55:06;6.50;;;5.60;;
5730;SDS011;2890;51.950;7.668;2022-08-01T06:57:34;5.80;;;5.15;;
5730;SDS011;2890;51.950;7.668;2022-08-01T07:00:02;5.25;;;4.75;;
5730;SDS011;2890;51.950;7.668;2022-08-01T07:02:34;5.22;;;4.70;;
5730;SDS011;2890;51.950;7.668;2022-08-01T07:05:01;5.18;;;4.28;;
5730;SDS011;2890;51.950;7.668;2022-08-01T07:07:29;7.40;;;5.28;;
5730;SDS011;2890;51.950;7.668;2022-08-01T07:09:55;27.77;;;8.77;;
5730;SDS011;2890;51.950;7.668;2022-08-01T07:12:22;9.15;;;6.47;;
5730;SDS011;2890;51.950;7.668;2022-08-01T07:14:50;7.80;;;5.47;;
5730;SDS011;2890;51.950;7.668;2022-08-01T07:17:17;8.32;;;5.93;;
5730;SDS011;2890;51.950;7.668;2022-08-01T07:19:45;4.75;;;4.07;;
5730;SDS011;2890;51.950;7.668;2022-08-01T07:22:12;4.00;;;3.08;;
5730;SDS011;2890;51.950;7.668;2022-08-01T07:24:39;5.95;;;4.80;;
5730;SDS011;2890;51.950;7.668;2022-08-01T07:27:06;4.07;;;3.67;;
5730;SDS011;2890;51.950;7.668;2022-08-01T07:29:33;4.18;;;3.78;;
5730;SDS011;2890;51.950;7.668;2022-08-01T07:32:01;4.30;;;3.63;;
5730;SDS011;2890;51.950;7.668;2022-08-01T07:34:28;4.88;;;4.10;;
5730;SDS011;2890;51.950;7.668;2022-08-01T07:36:55;4.47;;;3.90;;
5730;SDS011;2890;51.950;7.668;2022-08-01T07:39:21;5.15;;;4.57;;
5730;SDS011;2890;51.950;7.668;2022-08-01T07:41:48;9.57;;;4.50;;
5730;SDS011;2890;51.950;7.668;2022-08-01T07:44:15;6.57;;;4.45;;
5730;SDS011;2890;51.950;7.668;2022-08-01T07:46:41;8.20;;;5.35;;
5730;SDS011;2890;51.950;7.668;2022-08-01T07:49:09;6.25;;;5.32;;
5730;SDS011;2890;51.950;7.668;2022-08-01T07:51:36;6.90;;;6.13;;
5730;SDS011;2890;51.950;7.668;2022-08-01T07:54:03;9.30;;;6.13;;
5730;SDS011;2890;51.950;7.668;2022-08-01T07:56:30;8.02;;;5.97;;
5730;SDS011;2890;51.950;7.668;2022-08-01T07:58:56;7.75;;;4.60;;
5730;SDS011;2890;51.950;7.668;2022-08-01T08:01:23;7.50;;;4.63;;
5730;SDS011;2890;51.950;7.668;2022-08-01T08:03:50;5.35;;;4.20;;
5730;SDS011;2890;51.950;7.668;2022-08-01T08:06:18;5.80;;;4.72;;
5730;SDS011;2890;51.950;7.668;2022-08-01T08:08:44;6.35;;;4.78;;
5730;SDS011;2890;51.950;7.668;2022-08-01T08:11:11;6.55;;;5.00;;
5730;SDS011;2890;51.950;7.668;2022-08-01T08:13:38;7.47;;;5.65;;
5730;SDS011;2890;51.950;7.668;2022-08-01T08:16:05;6.32;;;5.03;;
5730;SDS011;2890;51.950;7.668;2022-08-01T08:18:31;7.72;;;6.25;;
5730;SDS011;2890;51.950;7.668;2022-08-01T08:20:58;6.43;;;5.80;;
5730;SDS011;2890;51.950;7.668;2022-08-01T08:23:26;10.00;;;5.75;;
5730;SDS011;2890;51.950;7.668;2022-08-01T08:26:10;7.18;;;6.10;;
5730;SDS011;2890;51.950;7.668;2022-08-01T08:28:37;6.35;;;5.75;;
5730;SDS011;2890;51.950;7.668;2022-08-01T08:31:04;7.03;;;6.07;;
5730;SDS011;2890;51.950;7.668;2022-08-01T08:33:30;7.43;;;5.70;;
5730;SDS011;2890;51.950;7.668;2022-08-01T08:35:57;9.88;;;6.60;;
5730;SDS011;2890;51.950;7.668;2022-08-01T08:38:24;7.80;;;5.78;;
5730;SDS011;2890;51.950;7.668;2022-08-01T08:40:53;8.30;;;5.68;;
5730;SDS011;2890;51.950;7.668;2022-08-01T08:43:20;10.20;;;6.00;;
5730;SDS011;2890;51.950;7.668;2022-08-01T08:45:47;8.68;;;6.03;;
5730;SDS011;2890;51.950;7.668;2022-08-01T08:48:14;8.18;;;6.18;;
5730;SDS011;2890;51.950;7.668;2022-08-01T08:50:41;6.68;;;5.78;;
5730;SDS011;2890;51.950;7.668;2022-08-01T08:53:11;8.98;;;5.32;;
5730;SDS011;2890;51.950;7.668;2022-08-01T08:55:41;5.63;;;5.13;;
5730;SDS011;2890;51.950;7.668;2022-08-01T08:58:10;5.38;;;4.88;;
5730;SDS011;2890;51.950;7.668;2022-08-01T09:00:39;5.72;;;4.10;;
5730;SDS011;2890;51.950;7.668;2022-08-01T09:03:06;5.38;;;4.50;;
5730;SDS011;2890;51.950;7.668;2022-08-01T09:05:33;5.65;;;5.03;;
5730;SDS011;2890;51.950;7.668;2022-08-01T09:08:00;5.45;;;4.07;;
5730;SDS011;2890;51.950;7.668;2022-08-01T09:10:26;4.40;;;4.00;;
5730;SDS011;2890;51.950;7.668;2022-08-01T09:13:06;4.63;;;4.15;;
5730;SDS011;2890;51.950;7.668;2022-08-01T09:15:43;7.15;;;3.88;;
5730;SDS011;2890;51.950;7.668;2022-08-01T09:18:27;5.55;;;4.13;;
5730;SDS011;2890;51.950;7.668;2022-08-01T09:21:07;4.85;;;4.38;;
5730;SDS011;2890;51.950;7.668;2022-08-01T09:23:35;6.50;;;4.43;;
5730;SDS011;2890;51.950;7.668;2022-08-01T09:26:04;5.25;;;4.72;;
5730;SDS011;2890;51.950;7.668;2022-08-01T09:28:31;6.60;;;3.95;;
5730;SDS011;2890;51.950;7.668;2022-08-01T09:30:59;5.95;;;3.95;;
5730;SDS011;2890;51.950;7.668;2022-08-01T09:33:46;10.65;;;3.95;;
5730;SDS011;2890;51.950;7.668;2022-08-01T09:36:14;6.25;;;3.45;;
5730;SDS011;2890;51.950;7.668;2022-08-01T09:38:40;4.30;;;3.90;;
5730;SDS011;2890;51.950;7.668;2022-08-01T09:41:07;6.53;;;3.83;;
5730;SDS011;2890;51.950;7.668;2022-08-01T09:43:36;4.13;;;3.72;;
5730;SDS011;2890;51.950;7.668;2022-08-01T09:46:05;3.42;;;3.13;;
5730;SDS011;2890;51.950;7.668;2022-08-01T09:48:36;6.57;;;4.10;;
5730;SDS011;2890;51.950;7.668;2022-08-01T09:51:04;5.30;;;4.22;;
5730;SDS011;2890;51.950;7.668;2022-08-01T09:53:41;5.43;;;4.93;;
5730;SDS011;2890;51.950;7.668;2022-08-01T09:56:11;7.45;;;5.53;;
5730;SDS011;2890;51.950;7.668;2022-08-01T09:58:48;7.15;;;4.80;;
5730;SDS011;2890;51.950;7.668;2022-08-01T10:01:21;4.65;;;4.22;;
5730;SDS011;2890;51.950;7.668;2022-08-01T10:03:56;4.88;;;4.38;;
5730;SDS011;2890;51.950;7.668;2022-08-01T10:06:34;6.25;;;5.35;;
5730;SDS011;2890;51.950;7.668;2022-08-01T10:09:01;5.82;;;4.95;;
5730;SDS011;2890;51.950;7.668;2022-08-01T10:11:28;5.53;;;5.03;;
5730;SDS011;2890;51.950;7.668;2022-08-01T10:13:56;7.10;;;4.57;;
5730;SDS011;2890;51.950;7.668;2022-08-01T10:16:27;5.38;;;4.85;;
5730;SDS011;2890;51.950;7.668;2022-08-01T10:18:55;6.30;;;5.30;;
5730;SDS011;2890;51.950;7.668;2022-08-01T10:21:23;6.15;;;5.15;;
5730;SDS011;2890;51.950;7.668;2022-08-01T10:23:51;4.60;;;4.20;;
5730;SDS011;2890;51.950;7.668;2022-08-01T10:26:20;4.55;;;4.13;;
5730;SDS011;2890;51.950;7.668;2022-08-01T10:28:47;4.32;;;3.63;;
5730;SDS011;2890;51.950;7.668;2022-08-01T10:31:16;3.63;;;3.33;;
5730;SDS011;2890;51.950;7.668;2022-08-01T10:33:45;5.18;;;4.15;;
5730;SDS011;2890;51.950;7.668;2022-08-01T10:36:12;4.50;;;4.10;;
5730;SDS011;2890;51.950;7.668;2022-08-01T10:38:39;7.50;;;4.18;;
5730;SDS011;2890;51.950;7.668;2022-08-01T10:41:06;4.20;;;3.80;;
5730;SDS011;2890;51.950;7.668;2022-08-01T10:43:35;5.45;;;4.18;;
5730;SDS011;2890;51.950;7.668;2022-08-01T10:46:02;6.70;;;3.97;;
5730;SDS011;2890;51.950;7.668;2022-08-01T10:48:31;5.60;;;4.97;;
5730;SDS011;2890;51.950;7.668;2022-08-01T10:51:08;8.18;;;5.15;;
5730;SDS011;2890;51.950;7.668;2022-08-01T10:53:35;5.40;;;4.90;;
5730;SDS011;2890;51.950;7.668;2022-08-01T10:56:02;5.20;;;4.80;;
5730;SDS011;2890;51.950;7.668;2022-08-01T10:58:31;4.43;;;4.03;;
5730;SDS011;2890;51.950;7.668;2022-08-01T11:03:58;8.60;;;5.25;;
5730;SDS011;2890;51.950;7.668;2022-08-01T11:06:40;5.43;;;4.80;;
5730;SDS011;2890;51.950;7.668;2022-08-01T11:09:31;5.43;;;4.85;;
5730;SDS011;2890;51.950;7.668;2022-08-01T11:12:06;6.07;;;4.70;;
5730;SDS011;2890;51.950;7.668;2022-08-01T11:15:15;8.10;;;4.38;;
5730;SDS011;2890;51.950;7.668;2022-08-01T11:17:41;5.53;;;4.85;;
5730;SDS011;2890;51.950;7.668;2022-08-01T11:20:12;8.65;;;4.75;;
5730;SDS011;2890;51.950;7.668;2022-08-01T11:26:08;6.55;;;5.68;;
5730;SDS011;2890;51.950;7.668;2022-08-01T11:28:36;7.20;;;4.80;;
5730;SDS011;2890;51.950;7.668;2022-08-01T11:33:53;5.50;;;4.82;;
5730;SDS011;2890;51.950;7.668;2022-08-01T11:36:20;7.75;;;4.28;;
5730;SDS011;2890;51.950;7.668;2022-08-01T11:38:48;6.88;;;3.75;;
5730;SDS011;2890;51.950;7.668;2022-08-01T11:41:38;4.45;;;3.63;;
5730;SDS011;2890;51.950;7.668;2022-08-01T11:44:05;14.05;;;4.68;;
5730;SDS011;2890;51.950;7.668;2022-08-01T11:46:50;4.07;;;3.67;;
5730;SDS011;2890;51.950;7.668;2022-08-01T11:49:26;5.85;;;3.78;;
5730;SDS011;2890;51.950;7.668;2022-08-01T11:51:58;3.92;;;3.53;;
5730;SDS011;2890;51.950;7.668;2022-08-01T11:54:27;5.28;;;3.83;;
5730;SDS011;2890;51.950;7.668;2022-08-01T11:56:56;5.65;;;3.58;;
5730;SDS011;2890;51.950;7.668;2022-08-01T11:59:24;4.65;;;3.53;;
5730;SDS011;2890;51.950;7.668;2022-08-01T12:01:52;3.20;;;2.47;;
5730;SDS011;2890;51.950;7.668;2022-08-01T12:04:19;2.47;;;2.17;;
5730;SDS011;2890;51.950;7.668;2022-08-01T12:06:46;4.47;;;3.03;;
5730;SDS011;2890;51.950;7.668;2022-08-01T12:09:16;4.68;;;2.88;;
5730;SDS011;2890;51.950;7.668;2022-08-01T12:11:45;4.63;;;3.38;;
5730;SDS011;2890;51.950;7.668;2022-08-01T12:14:16;5.43;;;3.60;;
5730;SDS011;2890;51.950;7.668;2022-08-01T12:16:49;5.82;;;4.10;;
5730;SDS011;2890;51.950;7.668;2022-08-01T12:19:18;4.38;;;3.95;;
5730;SDS011;2890;51.950;7.668;2022-08-01T12:24:31;4.93;;;4.35;;
5730;SDS011;2890;51.950;7.668;2022-08-01T12:26:58;7.05;;;5.20;;
5730;SDS011;2890;51.950;7.668;2022-08-01T12:29:33;8.65;;;5.10;;
5730;SDS011;2890;51.950;7.668;2022-08-01T12:32:00;7.40;;;6.15;;
5730;SDS011;2890;51.950;7.668;2022-08-01T12:34:28;8.80;;;6.55;;
5730;SDS011;2890;51.950;7.668;2022-08-01T12:36:55;8.40;;;6.35;;
5730;SDS011;2890;51.950;7.668;2022-08-01T12:39:28;7.93;;;5.80;;
5730;SDS011;2890;51.950;7.668;2022-08-01T12:41:56;9.52;;;6.68;;
5730;SDS011;2890;51.950;7.668;2022-08-01T12:44:22;8.32;;;6.07;;
5730;SDS011;2890;51.950;7.668;2022-08-01T12:46:51;7.03;;;6.10;;
5730;SDS011;2890;51.950;7.668;2022-08-01T12:49:18;7.70;;;6.53;;
5730;SDS011;2890;51.950;7.668;2022-08-01T12:51:45;7.95;;;5.75;;
5730;SDS011;2890;51.950;7.668;2022-08-01T12:54:12;6.60;;;5.95;;
5730;SDS011;2890;51.950;7.668;2022-08-01T12:56:38;8.68;;;6.43;;
5730;SDS011;2890;51.950;7.668;2022-08-01T12:59:18;8.27;;;6.50;;
5730;SDS011;2890;51.950;7.668;2022-08-01T13:01:46;7.90;;;6.88;;
5730;SDS011;2890;51.950;7.668;2022-08-01T13:04:14;10.82;;;7.22;;
5730;SDS011;2890;51.950;7.668;2022-08-01T13:06:41;8.95;;;6.47;;
5730;SDS011;2890;51.950;7.668;2022-08-01T13:09:08;7.38;;;6.40;;
5730;SDS011;2890;51.950;7.668;2022-08-01T13:11:36;6.40;;;5.72;;
5730;SDS011;2890;51.950;7.668;2022-08-01T13:14:03;7.45;;;6.28;;
5730;SDS011;2890;51.950;7.668;2022-08-01T13:16:31;7.75;;;5.95;;
5730;SDS011;2890;51.950;7.668;2022-08-01T13:18:58;8.30;;;5.43;;
5730;SDS011;2890;51.950;7.668;2022-08-01T13:21:27;6.80;;;5.30;;
5730;SDS011;2890;51.950;7.668;2022-08-01T13:24:02;6.45;;;5.18;;
5730;SDS011;2890;51.950;7.668;2022-08-01T13:26:38;9.48;;;5.85;;
5730;SDS011;2890;51.950;7.668;2022-08-01T13:29:06;5.90;;;5.30;;
5730;SDS011;2890;51.950;7.668;2022-08-01T13:31:34;5.88;;;3.95;;
5730;SDS011;2890;51.950;7.668;2022-08-01T13:34:02;4.63;;;3.83;;
5730;SDS011;2890;51.950;7.668;2022-08-01T13:36:31;6.88;;;4.40;;
5730;SDS011;2890;51.950;7.668;2022-08-01T13:38:58;6.03;;;3.65;;
5730;SDS011;2890;51.950;7.668;2022-08-01T13:41:44;5.18;;;3.60;;
5730;SDS011;2890;51.950;7.668;2022-08-01T13:44:11;8.45;;;3.97;;
5730;SDS011;2890;51.950;7.668;2022-08-01T13:46:39;4.05;;;2.95;;
5730;SDS011;2890;51.950;7.668;2022-08-01T13:49:07;5.18;;;2.80;;
5730;SDS011;2890;51.950;7.668;2022-08-01T13:51:36;4.28;;;2.20;;
5730;SDS011;2890;51.950;7.668;2022-08-01T13:54:03;3.92;;;2.33;;
5730;SDS011;2890;51.950;7.668;2022-08-01T13:56:32;11.88;;;8.90;;
5730;SDS011;2890;51.950;7.668;2022-08-01T13:58:58;5.20;;;3.35;;
5730;SDS011;2890;51.950;7.668;2022-08-01T14:01:25;5.30;;;2.78;;
5730;SDS011;2890;51.950;7.668;2022-08-01T14:03:52;3.92;;;2.67;;
5730;SDS011;2890;51.950;7.668;2022-08-01T14:06:19;4.80;;;2.22;;
5730;SDS011;2890;51.950;7.668;2022-08-01T14:08:48;4.80;;;2.10;;
5730;SDS011;2890;51.950;7.668;2022-08-01T14:11:15;4.07;;;2.42;;
5730;SDS011;2890;51.950;7.668;2022-08-01T14:13:42;5.70;;;2.40;;
5730;SDS011;2890;51.950;7.668;2022-08-01T14:16:09;3.42;;;2.47;;
5730;SDS011;2890;51.950;7.668;2022-08-01T14:18:36;4.13;;;1.95;;
5730;SDS011;2890;51.950;7.668;2022-08-01T14:21:03;6.55;;;2.50;;
5730;SDS011;2890;51.950;7.668;2022-08-01T14:23:30;7.18;;;3.10;;
5730;SDS011;2890;51.950;7.668;2022-08-01T14:25:58;10.07;;;2.85;;
5730;SDS011;2890;51.950;7.668;2022-08-01T14:28:24;5.50;;;2.70;;
5730;SDS011;2890;51.950;7.668;2022-08-01T14:30:52;6.32;;;3.10;;
5730;SDS011;2890;51.950;7.668;2022-08-01T14:33:20;4.22;;;2.55;;
5730;SDS011;2890;51.950;7.668;2022-08-01T14:35:47;4.50;;;2.95;;
5730;SDS011;2890;51.950;7.668;2022-08-01T14:38:14;4.88;;;2.80;;
5730;SDS011;2890;51.950;7.668;2022-08-01T14:40:41;6.03;;;2.83;;
5730;SDS011;2890;51.950;7.668;2022-08-01T14:43:09;4.47;;;2.70;;
5730;SDS011;2890;51.950;7.668;2022-08-01T14:45:36;6.82;;;2.50;;
5730;SDS011;2890;51.950;7.668;2022-08-01T14:48:03;5.82;;;2.70;;
5730;SDS011;2890;51.950;7.668;2022-08-01T14:50:30;4.82;;;2.70;;
5730;SDS011;2890;51.950;7.668;2022-08-01T14:52:57;7.85;;;2.95;;
5730;SDS011;2890;51.950;7.668;2022-08-01T14:55:23;4.50;;;2.72;;
5730;SDS011;2890;51.950;7.668;2022-08-01T14:57:52;6.78;;;2.50;;
5730;SDS011;2890;51.950;7.668;2022-08-01T15:00:20;9.27;;;2.50;;
5730;SDS011;2890;51.950;7.668;2022-08-01T15:02:47;5.20;;;2.30;;
5730;SDS011;2890;51.950;7.668;2022-08-01T15:05:14;5.20;;;2.47;;
5730;SDS011;2890;51.950;7.668;2022-08-01T15:07:41;5.60;;;2.35;;
5730;SDS011;2890;51.950;7.668;2022-08-01T15:10:07;4.50;;;2.75;;
5730;SDS011;2890;51.950;7.668;2022-08-01T15:12:34;3.95;;;2.20;;
5730;SDS011;2890;51.950;7.668;2022-08-01T15:15:01;4.65;;;2.50;;
5730;SDS011;2890;51.950;7.668;2022-08-01T15:17:30;6.72;;;4.22;;
5730;SDS011;2890;51.950;7.668;2022-08-01T15:19:59;4.70;;;2.70;;
5730;SDS011;2890;51.950;7.668;2022-08-01T15:22:28;5.35;;;3.30;;
5730;SDS011;2890;51.950;7.668;2022-08-01T15:24:56;11.05;;;2.75;;
5730;SDS011;2890;51.950;7.668;2022-08-01T15:27:25;5.22;;;2.97;;
5730;SDS011;2890;51.950;7.668;2022-08-01T15:29:54;6.78;;;3.22;;
5730;SDS011;2890;51.950;7.668;2022-08-01T15:32:21;7.80;;;4.45;;